Time;durP1;ratioP1;P1;durP2;ratioP2;P2;SDS_P1;SDS_P2;PMS_P1;PMS_P2;Temp;Humidity;BMP_temperature;BMP_pressure;BME280_temperature;BME280_humidity;BME280_pressure;Samples;Min_cycle;Max_cycle;Signal;HPM_P1;HPM_P2
2021/12/13 00:02:31;;;;;;;2.57;2.37;;;;;;;3.95;100.00;97232.25;5029622;28;105593;-64
2021/12/13 00:05:07;;;;;;;2.10;1.90;;;;;;;3.94;100.00;97239.31;5062705;27;105065;-64
2021/12/13 00:07:38;;;;;;;2.60;2.40;;;;;;;3.95;100.00;97224.34;5028702;28;101817;-64
2021/12/13 00:10:11;;;;;;;2.43;2.23;;;;;;;3.93;100.00;97229.78;5029267;28;105078;-64
2021/12/13 00:12:43;;;;;;;3.33;2.30;;;;;;;3.94;100.00;97228.00;5028772;28;105483;-64
2021/12/13 00:15:17;;;;;;;2.20;2.00;;;;;;;3.97;100.00;97227.59;5032743;28;101956;-64
2021/12/13 00:17:50;;;;;;;2.20;2.00;;;;;;;3.96;100.00;97228.59;5030067;28;102613;-64
2021/12/13 00:20:28;;;;;;;2.67;2.47;;;;;;;3.97;100.00;97227.59;5029312;28;101839;-64
2021/12/13 00:22:59;;;;;;;3.53;2.80;;;;;;;3.97;100.00;97236.31;5029310;28;105262;-64
2021/12/13 00:25:30;;;;;;;2.60;2.40;;;;;;;3.97;100.00;97236.31;5028491;28;105733;-64
2021/12/13 00:28:06;;;;;;;2.60;2.40;;;;;;;4.00;100.00;97248.28;5028171;28;101820;-64
2021/12/13 00:30:38;;;;;;;2.40;2.20;;;;;;;4.04;100.00;97247.72;5029072;28;104821;-64
2021/12/13 00:33:15;;;;;;;2.77;2.57;;;;;;;4.05;100.00;97253.78;5028603;28;105282;-64
2021/12/13 00:35:51;;;;;;;2.67;2.47;;;;;;;4.03;100.00;97255.78;5028838;28;101762;-64
2021/12/13 00:38:22;;;;;;;2.83;2.40;;;;;;;4.03;100.00;97261.03;5031722;28;105138;-64
2021/12/13 00:41:01;;;;;;;3.17;2.87;;;;;;;3.96;100.00;97271.53;5028836;28;101785;-64
2021/12/13 00:43:35;;;;;;;2.77;2.57;;;;;;;3.92;100.00;97274.72;5028754;28;105644;-64
2021/12/13 00:46:06;;;;;;;3.43;3.10;;;;;;;3.89;100.00;97265.41;5029851;28;102054;-64
2021/12/13 00:48:37;;;;;;;3.50;3.07;;;;;;;3.93;100.00;97271.09;5028985;28;102159;-64
2021/12/13 00:51:11;;;;;;;3.67;3.00;;;;;;;3.90;100.00;97269.66;5028837;28;105833;-64
2021/12/13 00:53:40;;;;;;;3.30;3.00;;;;;;;3.87;100.00;97277.91;5028253;28;105749;-64
2021/12/13 00:56:42;;;;;;;3.13;2.83;;;;;;;3.86;100.00;97272.81;5028395;28;102213;-64
2021/12/13 00:59:09;;;;;;;4.20;2.93;;;;;;;3.87;100.00;97275.28;5028493;28;105367;-64
2021/12/13 01:01:37;;;;;;;3.00;2.70;;;;;;;3.86;100.00;97283.34;5032817;28;103933;-64
2021/12/13 01:04:08;;;;;;;3.00;2.80;;;;;;;3.89;100.00;97280.34;5029338;28;102422;-64
2021/12/13 01:07:19;;;;;;;4.00;3.00;;;;;;;3.86;100.00;97280.72;5027693;28;105245;-64
2021/12/13 01:10:23;;;;;;;3.40;2.77;;;;;;;3.84;100.00;97280.94;5029910;28;102017;-64
2021/12/13 01:12:52;;;;;;;3.07;2.87;;;;;;;3.91;100.00;97267.81;5030040;28;102298;-64
2021/12/13 01:15:30;;;;;;;3.40;3.10;;;;;;;3.84;100.00;97285.38;5029327;28;103014;-64
2021/12/13 01:18:15;;;;;;;3.20;2.83;;;;;;;3.81;100.00;97275.19;5032170;27;101715;-64
2021/12/13 01:20:59;;;;;;;3.00;2.70;;;;;;;3.83;100.00;97287.16;5031963;28;105537;-64
2021/12/13 01:23:42;;;;;;;3.30;3.00;;;;;;;3.88;100.00;97284.00;5036439;27;102424;-64
2021/12/13 01:26:36;;;;;;;5.07;3.07;;;;;;;3.80;100.00;97287.56;5031695;28;103521;-64
2021/12/13 01:29:08;;;;;;;3.33;3.03;;;;;;;3.84;100.00;97277.47;5031463;28;105257;-64
2021/12/13 01:31:40;;;;;;;3.40;3.10;;;;;;;3.76;100.00;97288.13;5033327;28;101975;-64
2021/12/13 01:34:08;;;;;;;3.30;3.00;;;;;;;3.78;100.00;97272.97;5033453;28;102399;-64
2021/12/13 01:36:44;;;;;;;3.67;3.37;;;;;;;3.79;100.00;97275.41;5032471;28;101685;-64
2021/12/13 01:39:16;;;;;;;3.47;2.90;;;;;;;3.80;100.00;97278.84;5033453;27;101982;-64
2021/12/13 01:41:45;;;;;;;3.23;2.77;;;;;;;3.85;100.00;97277.28;5033313;28;102436;-64
2021/12/13 01:44:18;;;;;;;3.20;2.90;;;;;;;3.85;100.00;97284.34;5032357;28;102605;-64
2021/12/13 01:46:48;;;;;;;3.63;3.33;;;;;;;3.80;100.00;97287.56;5036756;28;101863;-64
2021/12/13 01:49:16;;;;;;;3.27;2.83;;;;;;;3.85;100.00;97284.34;5032122;28;103210;-64
2021/12/13 01:51:44;;;;;;;3.60;3.30;;;;;;;3.77;100.00;97282.66;5032696;28;101879;-64
2021/12/13 01:54:17;;;;;;;3.87;3.40;;;;;;;3.76;100.00;97270.50;5033355;28;102768;-64
2021/12/13 01:56:53;;;;;;;3.30;3.00;;;;;;;3.73;100.00;97280.59;5030622;28;105833;-64
2021/12/13 01:59:42;;;;;;;3.40;3.10;;;;;;;3.74;100.00;97282.22;5031549;28;102038;-64
2021/12/13 02:02:14;;;;;;;3.53;3.23;;;;;;;3.74;100.00;97292.75;5031725;28;105098;-64
2021/12/13 02:04:43;;;;;;;3.53;2.93;;;;;;;3.72;100.00;97290.28;5032189;28;102678;-64
2021/12/13 02:07:12;;;;;;;3.63;3.10;;;;;;;3.65;100.00;97285.97;5032645;28;102086;-64
2021/12/13 02:09:43;;;;;;;4.10;3.47;;;;;;;3.63;100.00;97269.56;5033974;28;104822;-64
2021/12/13 02:12:14;;;;;;;3.60;3.30;;;;;;;3.61;100.00;97276.81;5031176;28;101875;-64
2021/12/13 02:14:50;;;;;;;5.67;3.73;;;;;;;3.58;100.00;97280.63;5031303;28;105607;-64
2021/12/13 02:17:20;;;;;;;4.40;3.50;;;;;;;3.56;100.00;97284.44;5030426;28;104091;-64
2021/12/13 02:19:51;;;;;;;3.90;3.60;;;;;;;3.56;100.00;97281.81;5030903;28;101826;-64
2021/12/13 02:22:37;;;;;;;4.37;3.57;;;;;;;3.57;100.00;97280.81;5031221;28;105070;-64
2021/12/13 02:25:12;;;;;;;3.67;3.27;;;;;;;3.47;100.00;97286.38;5032067;28;103178;-64
2021/12/13 02:27:41;;;;;;;4.07;3.63;;;;;;;3.50;100.00;97280.72;5030259;28;101993;-64
2021/12/13 02:30:15;;;;;;;4.43;4.03;;;;;;;3.48;100.00;97295.88;5029560;27;104763;-64
2021/12/13 02:32:45;;;;;;;4.17;3.80;;;;;;;3.43;100.00;97287.72;5034855;28;102779;-64
2021/12/13 02:35:15;;;;;;;4.60;4.20;;;;;;;3.51;100.00;97298.16;5030164;28;105222;-64
2021/12/13 02:37:44;;;;;;;5.20;4.30;;;;;;;3.39;100.00;97298.81;5030126;28;106352;-64
2021/12/13 02:40:14;;;;;;;4.50;4.10;;;;;;;3.46;100.00;97290.00;5030781;28;101964;-64
2021/12/13 02:42:42;;;;;;;4.50;4.10;;;;;;;3.47;100.00;97301.31;5030850;28;105314;-64
2021/12/13 02:45:15;;;;;;;4.33;4.00;;;;;;;3.41;100.00;97292.38;5029987;28;105606;-64
2021/12/13 02:47:50;;;;;;;4.67;4.27;;;;;;;3.35;100.00;97308.06;5030669;28;101880;-64
2021/12/13 02:50:23;;;;;;;5.67;4.73;;;;;;;3.34;100.00;97306.44;5030344;28;103626;-64
2021/12/13 02:52:53;;;;;;;5.10;4.70;;;;;;;3.33;100.00;97295.09;5030142;28;106501;-64
2021/12/13 02:55:25;;;;;;;5.50;5.00;;;;;;;3.31;100.00;97304.97;5034100;28;102005;-64
2021/12/13 02:57:54;;;;;;;5.70;5.10;;;;;;;3.25;100.00;97307.50;5029900;28;105760;-64
2021/12/13 03:00:26;;;;;;;5.90;5.00;;;;;;;3.23;100.00;97304.25;5030372;28;101954;-64
2021/12/13 03:02:57;;;;;;;6.60;5.90;;;;;;;3.24;100.00;97314.59;5030450;28;103676;-64
2021/12/13 03:05:28;;;;;;;6.83;5.00;;;;;;;3.29;100.00;97303.53;5029726;28;105065;-64
2021/12/13 03:08:02;;;;;;;6.50;5.90;;;;;;;3.25;100.00;97315.41;5030381;28;101866;-64
2021/12/13 03:10:32;;;;;;;6.40;5.80;;;;;;;3.16;100.00;97313.88;5031891;28;102356;-64
2021/12/13 03:12:59;;;;;;;6.67;6.07;;;;;;;3.19;100.00;97313.50;5029598;28;105328;-64
2021/12/13 03:15:29;;;;;;;6.47;5.90;;;;;;;3.14;100.00;97318.47;5030318;28;101991;-64
2021/12/13 03:18:01;;;;;;;7.47;6.77;;;;;;;3.11;100.00;97319.66;5033138;28;105455;-64
2021/12/13 03:20:56;;;;;;;7.07;6.40;;;;;;;3.08;100.00;97322.66;5030076;28;101876;-64
2021/12/13 03:23:37;;;;;;;8.33;7.50;;;;;;;3.03;100.00;97319.75;5030130;28;104930;-64
2021/12/13 03:26:24;;;;;;;8.23;7.43;;;;;;;3.00;100.00;97330.63;5029374;28;105373;-64
2021/12/13 03:29:03;;;;;;;8.10;7.30;;;;;;;2.97;100.00;97319.66;5029809;27;101653;-64
2021/12/13 03:31:37;;;;;;;8.40;7.37;;;;;;;2.96;100.00;97315.41;5031774;28;102385;-64
2021/12/13 03:34:09;;;;;;;8.47;7.47;;;;;;;2.96;100.00;97320.66;5029048;28;105219;-64
2021/12/13 03:36:54;;;;;;;8.80;7.90;;;;;;;2.99;100.00;97320.28;5029792;28;101911;-64
2021/12/13 03:39:26;;;;;;;9.20;8.30;;;;;;;2.95;100.00;97319.03;5032940;28;105524;-63
2021/12/13 03:41:56;;;;;;;8.83;7.93;;;;;;;2.97;100.00;97320.50;5029743;28;101991;-64
2021/12/13 03:44:27;;;;;;;10.73;7.93;;;;;;;2.98;100.00;97326.53;5029916;28;103865;-64
2021/12/13 03:47:06;;;;;;;8.57;7.23;;;;;;;2.91;100.00;97323.84;5028874;28;105690;-64
2021/12/13 03:49:38;;;;;;;9.23;8.37;;;;;;;2.93;100.00;97321.00;5029666;28;101796;-64
2021/12/13 03:52:07;;;;;;;9.50;8.60;;;;;;;2.86;100.00;97320.94;5029882;28;103747;-64
2021/12/13 03:54:38;;;;;;;9.87;8.87;;;;;;;2.88;100.00;97324.19;5029148;28;104955;-64
2021/12/13 03:57:06;;;;;;;9.70;8.70;;;;;;;2.84;100.00;97314.22;5029175;28;101765;-64
2021/12/13 03:59:35;;;;;;;9.90;8.90;;;;;;;2.86;100.00;97312.22;5031092;28;102843;-64
2021/12/13 04:02:06;;;;;;;10.10;9.10;;;;;;;2.82;100.00;97314.41;5032117;28;106937;-64
2021/12/13 04:04:38;;;;;;;10.80;9.70;;;;;;;2.81;100.00;97322.44;5029579;28;104752;-64
2021/12/13 04:07:11;;;;;;;10.77;9.63;;;;;;;2.81;100.00;97330.34;5030147;28;102515;-64
2021/12/13 04:09:40;;;;;;;10.33;9.27;;;;;;;2.81;100.00;97331.16;5029622;28;101852;-64
2021/12/13 04:12:08;;;;;;;11.00;9.10;;;;;;;2.83;100.00;97334.41;5029381;28;104098;-64
2021/12/13 04:14:41;;;;;;;10.70;9.60;;;;;;;2.81;100.00;97332.97;5028762;28;105970;-64
2021/12/13 04:17:22;;;;;;;11.20;10.00;;;;;;;2.82;100.00;97331.97;5029035;28;101909;-64
2021/12/13 04:19:55;;;;;;;11.33;10.13;;;;;;;2.84;100.00;97340.50;5028383;28;105497;-64
2021/12/13 04:22:25;;;;;;;11.80;10.40;;;;;;;2.80;100.00;97339.22;5027848;28;105716;-64
2021/12/13 04:24:58;;;;;;;11.80;10.40;;;;;;;2.83;100.00;97338.84;5031704;28;101810;-64
2021/12/13 04:27:27;;;;;;;13.37;11.20;;;;;;;2.84;100.00;97343.13;5026749;28;105585;-64
2021/12/13 04:29:59;;;;;;;11.97;10.77;;;;;;;2.83;100.00;97344.09;5028077;28;101832;-64
2021/12/13 04:32:30;;;;;;;12.83;10.67;;;;;;;2.79;100.00;97348.09;5028052;28;104863;-64
2021/12/13 04:34:59;;;;;;;11.97;10.70;;;;;;;2.80;100.00;97347.88;5029140;28;102644;-64
2021/12/13 04:37:32;;;;;;;12.57;11.27;;;;;;;2.87;100.00;97351.44;5027930;28;101850;-64
2021/12/13 04:40:06;;;;;;;13.10;11.67;;;;;;;2.92;100.00;97358.78;5027842;28;105678;-64
2021/12/13 04:42:34;;;;;;;13.83;12.03;;;;;;;2.87;100.00;97353.25;5027451;28;105035;-64
2021/12/13 04:45:05;;;;;;;14.40;11.37;;;;;;;2.92;100.00;97364.03;5027873;28;101805;-64
2021/12/13 04:47:38;;;;;;;13.20;11.80;;;;;;;2.96;100.00;97365.31;5030874;28;103716;-64
2021/12/13 04:50:12;;;;;;;13.03;11.63;;;;;;;2.93;100.00;97363.03;5027991;28;101785;-64
2021/12/13 04:52:40;;;;;;;13.17;11.57;;;;;;;2.93;100.00;97360.41;5027179;28;104841;-64
2021/12/13 04:55:14;;;;;;;13.37;11.97;;;;;;;2.93;100.00;97360.41;5027232;28;104992;-64
2021/12/13 04:57:42;;;;;;;14.17;11.93;;;;;;;2.89;100.00;97359.16;5029165;28;101703;-64
2021/12/13 05:00:16;;;;;;;13.27;11.23;;;;;;;2.95;100.00;97366.31;5027726;28;104911;-64
2021/12/13 05:02:47;;;;;;;13.90;11.87;;;;;;;2.93;100.00;97373.53;5027147;28;105121;-64
2021/12/13 05:05:16;;;;;;;14.80;12.13;;;;;;;2.98;100.00;97368.56;5027793;28;101986;-64
2021/12/13 05:07:44;;;;;;;14.40;12.50;;;;;;;3.00;100.00;97372.66;5027766;28;104862;-64
2021/12/13 05:10:14;;;;;;;13.33;11.93;;;;;;;3.03;100.00;97379.38;5030598;28;105728;-64
2021/12/13 05:12:59;;;;;;;14.43;12.70;;;;;;;3.07;100.00;97378.03;5029071;28;102921;-64
2021/12/13 05:15:27;;;;;;;13.53;11.60;;;;;;;3.05;100.00;97380.81;5026812;28;105803;-64
2021/12/13 05:17:55;;;;;;;13.50;12.10;;;;;;;3.05;100.00;97382.63;5027863;28;101867;-64
2021/12/13 05:20:26;;;;;;;13.40;11.93;;;;;;;3.02;100.00;97381.19;5061477;27;105277;-64
2021/12/13 05:22:56;;;;;;;14.00;12.50;;;;;;;3.01;100.00;97371.66;5027174;28;105425;-64
2021/12/13 05:25:30;;;;;;;14.27;11.73;;;;;;;3.06;100.00;97381.66;5027529;28;101921;-64
2021/12/13 05:28:10;;;;;;;14.33;12.23;;;;;;;3.11;100.00;97377.47;5027126;28;105643;-64
2021/12/13 05:30:47;;;;;;;16.13;12.37;;;;;;;3.07;100.00;97385.91;5026563;28;105675;-64
2021/12/13 05:33:16;;;;;;;13.27;11.57;;;;;;;3.04;100.00;97383.63;5030884;28;101980;-64
2021/12/13 05:35:48;;;;;;;12.87;11.43;;;;;;;2.99;100.00;97381.53;5026754;28;104963;-64
2021/12/13 05:38:30;;;;;;;13.63;11.90;;;;;;;3.04;100.00;97386.25;5027393;28;101730;-64
2021/12/13 05:41:03;;;;;;;14.03;11.47;;;;;;;3.02;100.00;97391.72;5027337;28;104029;-64
2021/12/13 05:43:33;;;;;;;15.27;12.17;;;;;;;3.01;100.00;97384.00;5026856;28;105508;-64
2021/12/13 05:46:04;;;;;;;15.10;12.30;;;;;;;3.03;100.00;97382.81;5026876;28;102010;-64
2021/12/13 05:48:43;;;;;;;13.33;11.80;;;;;;;3.03;100.00;97382.81;5027310;28;104740;-64
2021/12/13 05:51:23;;;;;;;13.97;11.93;;;;;;;3.05;100.00;97369.47;5026308;28;105091;-64
2021/12/13 05:53:56;;;;;;;13.93;12.20;;;;;;;3.04;100.00;97373.94;5031573;28;102033;-64
2021/12/13 05:56:34;;;;;;;14.00;12.00;;;;;;;3.08;100.00;97375.22;5026095;28;105137;-64
2021/12/13 05:59:15;;;;;;;17.60;12.90;;;;;;;3.10;100.00;97375.84;5040741;27;102018;-64
2021/12/13 06:02:12;;;;;;;15.77;12.60;;;;;;;3.11;100.00;97379.31;5007281;28;105316;-64
2021/12/13 06:04:44;;;;;;;14.40;11.77;;;;;;;3.15;100.00;97375.28;5006444;28;105065;-64
2021/12/13 06:07:24;;;;;;;14.97;12.00;;;;;;;3.11;100.00;97374.03;5010540;28;101842;-64
2021/12/13 06:10:03;;;;;;;16.93;12.33;;;;;;;3.08;100.00;97371.75;5010597;28;105146;-64
2021/12/13 06:12:51;;;;;;;16.50;12.80;;;;;;;3.07;100.00;97383.28;5009844;28;105912;-64
2021/12/13 06:15:27;;;;;;;16.37;12.90;;;;;;;3.09;100.00;97384.72;5010436;28;101842;-64
2021/12/13 06:17:59;;;;;;;14.47;12.60;;;;;;;3.16;100.00;97396.16;5013253;28;105631;-63
2021/12/13 06:20:31;;;;;;;15.90;12.67;;;;;;;3.16;100.00;97392.72;5010409;28;101826;-64
2021/12/13 06:23:07;;;;;;;16.63;14.40;;;;;;;3.16;100.00;97397.97;5010307;28;105409;-64
2021/12/13 06:25:55;;;;;;;18.47;14.27;;;;;;;3.22;100.00;97397.25;5010811;28;102653;-64
2021/12/13 06:28:26;;;;;;;16.43;14.03;;;;;;;3.19;100.00;97398.44;5009797;28;101913;-64
2021/12/13 06:30:58;;;;;;;18.57;15.17;;;;;;;3.20;100.00;97402.69;5010132;28;105130;-64
2021/12/13 06:33:26;;;;;;;18.87;14.90;;;;;;;3.19;100.00;97405.47;5009751;28;104158;-64
2021/12/13 06:35:55;;;;;;;16.83;14.93;;;;;;;3.24;100.00;97398.72;5010029;28;102022;-64
2021/12/13 06:38:42;;;;;;;18.47;16.10;;;;;;;3.29;100.00;97403.41;5009923;28;104912;-64
2021/12/13 06:41:16;;;;;;;17.43;15.10;;;;;;;3.26;100.00;97409.00;5013107;28;105128;-64
2021/12/13 06:43:48;;;;;;;16.67;14.87;;;;;;;3.29;100.00;97406.84;5009954;28;105333;-63
2021/12/13 06:46:32;;;;;;;19.13;15.80;;;;;;;3.28;100.00;97402.59;5009648;28;105344;-64
2021/12/13 06:49:07;;;;;;;19.07;15.80;;;;;;;3.27;100.00;97405.41;5011586;28;101825;-64
2021/12/13 06:51:47;;;;;;;18.27;15.10;;;;;;;3.32;100.00;97406.50;5009478;28;105429;-64
2021/12/13 06:54:18;;;;;;;22.00;16.60;;;;;;;3.37;100.00;97405.94;5010565;28;102561;-64
2021/12/13 06:56:52;;;;;;;19.00;16.67;;;;;;;3.36;100.00;97404.31;5009434;28;102283;-64
2021/12/13 06:59:20;;;;;;;20.47;16.53;;;;;;;3.35;100.00;97407.94;5011513;28;102269;-64
2021/12/13 07:02:01;;;;;;;21.83;16.00;;;;;;;3.40;100.00;97416.13;5009231;28;103720;-63
2021/12/13 07:04:39;;;;;;;19.50;16.63;;;;;;;3.41;100.00;97412.47;5014785;28;101970;-64
2021/12/13 07:07:11;;;;;;;20.20;16.47;;;;;;;3.46;100.00;97410.97;5028481;28;102925;-64
2021/12/13 07:10:05;;;;;;;19.80;16.60;;;;;;;3.43;100.00;97423.63;5029536;28;101950;-64
2021/12/13 07:12:34;;;;;;;21.63;16.37;;;;;;;3.43;100.00;97431.50;5029505;28;102684;-64
2021/12/13 07:15:04;;;;;;;20.80;16.93;;;;;;;3.49;100.00;97436.06;5016188;28;105585;-64
2021/12/13 07:17:35;;;;;;;18.13;15.23;;;;;;;3.48;100.00;97434.41;5030625;28;101813;-64
2021/12/13 07:20:13;;;;;;;18.97;15.63;;;;;;;3.43;100.00;97440.22;5028970;28;105243;-64
2021/12/13 07:22:43;;;;;;;20.63;15.83;;;;;;;3.52;100.00;97427.81;5030311;28;102882;-64
2021/12/13 07:25:16;;;;;;;17.80;15.23;;;;;;;3.41;100.00;97434.34;5028802;28;101952;-64
2021/12/13 07:27:46;;;;;;;19.90;15.30;;;;;;;3.39;100.00;97430.25;5033090;28;102411;-64
2021/12/13 07:30:19;;;;;;;18.70;16.17;;;;;;;3.42;100.00;97435.13;5029002;28;102118;-63
2021/12/13 07:32:59;;;;;;;17.00;14.90;;;;;;;3.52;100.00;97443.59;5026914;28;106392;-64
2021/12/13 07:35:33;;;;;;;20.37;15.07;;;;;;;3.51;100.00;97449.84;5027370;28;102848;-64
2021/12/13 07:38:05;;;;;;;15.63;13.60;;;;;;;3.61;100.00;97453.03;5028715;28;102027;-64
2021/12/13 07:40:54;;;;;;;17.13;14.97;;;;;;;3.56;100.00;97450.13;5028826;28;103702;-64
2021/12/13 07:43:26;;;;;;;18.47;15.23;;;;;;;3.73;100.00;97459.47;5029840;28;102650;-64
2021/12/13 07:46:00;;;;;;;17.63;15.80;;;;;;;3.76;100.00;97464.38;5028984;28;101993;-64
2021/12/13 07:48:34;;;;;;;16.50;14.63;;;;;;;3.77;100.00;97453.66;5010598;28;101664;-64
2021/12/13 07:51:19;;;;;;;18.33;15.83;;;;;;;3.79;100.00;97459.56;5011621;28;101752;-63
2021/12/13 07:53:51;;;;;;;16.10;14.40;;;;;;;3.77;100.00;97466.81;5025293;28;105808;-64
2021/12/13 07:56:25;;;;;;;15.70;13.97;;;;;;;3.66;100.00;97467.25;5028246;28;105519;-63
2021/12/13 07:59:00;;;;;;;16.37;14.17;;;;;;;3.65;100.00;97470.09;5028900;28;101897;-63
2021/12/13 08:02:15;;;;;;;15.10;13.50;;;;;;;3.75;100.00;97474.06;5027304;28;104837;-64
2021/12/13 08:04:48;;;;;;;18.40;14.87;;;;;;;3.72;100.00;97476.25;5028315;28;105136;-64
2021/12/13 08:07:18;;;;;;;19.40;15.77;;;;;;;3.69;100.00;97484.50;5028221;28;101758;-64
2021/12/13 08:09:48;;;;;;;15.77;13.90;;;;;;;3.74;100.00;97482.13;5028627;28;105362;-64
2021/12/13 08:12:53;;;;;;;16.73;14.67;;;;;;;3.70;100.00;97476.44;5031521;28;106069;-65
2021/12/13 08:15:24;;;;;;;17.40;15.57;;;;;;;3.74;100.00;97479.50;5028354;28;105040;-63
2021/12/13 08:17:54;;;;;;;17.20;15.40;;;;;;;3.74;100.00;97482.97;5028100;28;105758;-64
2021/12/13 08:20:27;;;;;;;18.37;14.93;;;;;;;3.83;100.00;97481.06;5028454;28;101801;-64
2021/12/13 08:22:54;;;;;;;19.33;15.70;;;;;;;3.80;100.00;97490.13;5028683;28;105293;-64
2021/12/13 08:25:32;;;;;;;19.33;16.40;;;;;;;3.86;100.00;97496.47;5027805;28;105629;-63
2021/12/13 08:28:03;;;;;;;18.23;15.43;;;;;;;3.76;100.00;97495.94;5026848;27;101805;-63
2021/12/13 08:30:46;;;;;;;18.73;16.73;;;;;;;3.88;100.00;97502.38;5028205;28;105300;-63
2021/12/13 08:33:17;;;;;;;19.53;15.70;;;;;;;3.84;100.00;97499.31;5026680;28;105082;-63
2021/12/13 08:35:57;;;;;;;18.13;14.53;;;;;;;3.99;100.00;97499.28;5031314;28;102019;-63
2021/12/13 08:38:34;;;;;;;18.97;15.67;;;;;;;4.05;100.00;97495.94;5027709;28;105774;-63
2021/12/13 08:44:27;;;;;;;19.10;15.13;;;;;;;3.90;100.00;97511.72;5028336;28;105266;-63
2021/12/13 08:46:59;;;;;;;23.83;18.27;;;;;;;3.82;100.00;97503.09;5027677;28;103743;-63
2021/12/13 08:49:36;;;;;;;23.80;20.43;;;;;;;3.77;100.00;97508.88;5029435;28;102007;-63
2021/12/13 08:52:18;;;;;;;26.23;21.57;;;;;;;3.80;100.00;97505.09;5027974;28;105138;-64
2021/12/13 08:55:02;;;;;;;24.97;20.17;;;;;;;3.92;100.00;97507.09;5027806;28;105489;-64
2021/12/13 08:57:43;;;;;;;28.87;19.20;;;;;;;3.96;100.00;97512.81;5018005;28;101883;-64
2021/12/13 09:00:30;;;;;;;28.20;21.17;;;;;;;4.05;100.00;97511.72;5032768;27;102467;-64
2021/12/13 09:03:02;;;;;;;23.93;18.50;;;;;;;4.14;100.00;97521.16;5027881;28;102181;-64
2021/12/13 09:05:34;;;;;;;20.97;16.90;;;;;;;4.03;100.00;97518.97;5027668;28;104871;-64
2021/12/13 09:08:08;;;;;;;18.83;16.60;;;;;;;4.08;100.00;97527.97;5018309;28;105379;-64
2021/12/13 09:10:43;;;;;;;18.50;16.13;;;;;;;4.12;100.00;97523.13;5027906;28;102095;-64
2021/12/13 09:13:11;;;;;;;20.03;16.10;;;;;;;4.00;100.00;97525.44;5027369;28;104291;-63
2021/12/13 09:15:39;;;;;;;19.73;16.47;;;;;;;3.97;100.00;97524.94;5027206;28;105139;-63
2021/12/13 09:18:08;;;;;;;19.50;16.33;;;;;;;4.13;100.00;97520.34;5027774;28;101958;-64
2021/12/13 09:20:56;;;;;;;19.37;16.27;;;;;;;4.22;100.00;97521.88;5027993;28;105167;-64
2021/12/13 09:23:28;;;;;;;18.73;16.70;;;;;;;4.05;100.00;97515.16;5030726;28;105770;-64
2021/12/13 09:26:09;;;;;;;20.00;16.50;;;;;;;4.16;100.00;97530.47;5027972;28;105027;-64
2021/12/13 09:28:43;;;;;;;22.77;18.73;;;;;;;4.29;100.00;97525.41;5026915;28;105200;-64
2021/12/13 09:31:18;;;;;;;28.90;19.77;;;;;;;4.16;100.00;97519.94;5027760;28;101876;-63
2021/12/13 09:33:50;;;;;;;32.47;20.93;;;;;;;4.22;100.00;97528.94;5027330;28;104834;-63
2021/12/13 09:36:19;;;;;;;22.97;18.77;;;;;;;4.18;100.00;97527.66;5026967;28;105965;-63
2021/12/13 09:38:53;;;;;;;20.00;17.13;;;;;;;4.16;100.00;97534.94;5028937;27;102093;-63
2021/12/13 09:41:28;;;;;;;19.43;16.17;;;;;;;4.20;100.00;97523.84;5032090;28;104275;-62
2021/12/13 09:44:00;;;;;;;18.77;15.77;;;;;;;4.21;100.00;97524.69;5030521;28;106051;-68
2021/12/13 09:46:38;;;;;;;19.77;15.10;;;;;;;4.12;100.00;97526.59;5035428;28;103087;-65
2021/12/13 09:49:10;;;;;;;17.37;15.43;;;;;;;4.21;100.00;97517.59;5031779;27;102112;-62
2021/12/13 09:51:42;;;;;;;18.23;16.20;;;;;;;4.31;100.00;97512.88;5030628;28;101837;-62
2021/12/13 09:54:13;;;;;;;17.77;15.87;;;;;;;4.31;100.00;97507.59;5030714;28;105953;-62
2021/12/13 09:56:49;;;;;;;20.17;15.70;;;;;;;4.29;100.00;97503.50;5030198;28;104951;-62
2021/12/13 09:59:25;;;;;;;19.03;16.00;;;;;;;4.30;100.00;97502.50;5030512;28;101798;-61
2021/12/13 10:01:54;;;;;;;20.07;17.10;;;;;;;4.27;100.00;97506.31;5030887;28;103657;-61
2021/12/13 10:04:31;;;;;;;18.87;16.87;;;;;;;4.24;100.00;97500.63;5030139;28;104949;-62
2021/12/13 10:07:04;;;;;;;18.90;16.87;;;;;;;4.40;100.00;97495.13;5033961;28;101783;-61
2021/12/13 10:09:36;;;;;;;20.03;16.57;;;;;;;4.40;100.00;97489.88;5029711;28;105182;-62
2021/12/13 10:12:12;;;;;;;19.47;15.83;;;;;;;4.31;100.00;97497.06;5030367;28;101946;-62
2021/12/13 10:14:46;;;;;;;21.43;16.33;;;;;;;4.32;100.00;97487.34;5033823;27;103168;-62
2021/12/13 10:17:16;;;;;;;20.83;17.07;;;;;;;4.36;100.00;97486.00;5030037;28;104883;-62
2021/12/13 10:19:45;;;;;;;22.00;18.50;;;;;;;4.47;100.00;97481.03;5016415;28;101763;-62
2021/12/13 10:22:26;;;;;;;21.10;17.40;;;;;;;4.41;100.00;97486.22;5031538;28;104177;-62
2021/12/13 10:25:28;;;;;;;19.07;16.20;;;;;;;4.51;100.00;97482.31;5063682;27;105684;-63
2021/12/13 10:27:57;;;;;;;19.47;16.60;;;;;;;4.49;100.00;97479.06;5029789;28;102323;-64
2021/12/13 10:30:28;;;;;;;20.57;16.93;;;;;;;4.54;100.00;97479.28;5033432;28;104079;-61
2021/12/13 10:32:55;;;;;;;19.97;17.20;;;;;;;4.59;100.00;97479.56;5030241;28;101775;-62
2021/12/13 10:35:27;;;;;;;18.93;16.63;;;;;;;4.72;100.00;97481.50;5029907;28;103676;-61
2021/12/13 10:37:58;;;;;;;19.17;17.00;;;;;;;4.72;100.00;97479.72;5030106;28;105738;-62
2021/12/13 10:40:29;;;;;;;21.63;16.80;;;;;;;4.82;100.00;97479.41;5030222;28;101817;-61
2021/12/13 10:43:00;;;;;;;19.80;17.50;;;;;;;4.87;100.00;97474.38;5030385;28;103734;-62
2021/12/13 10:45:31;;;;;;;20.27;16.00;;;;;;;4.95;100.00;97469.78;5030928;28;102708;-62
2021/12/13 10:48:01;;;;;;;17.93;14.87;;;;;;;4.78;100.00;97467.59;5030141;28;101830;-62
2021/12/13 10:50:33;;;;;;;16.80;14.43;;;;;;;4.76;100.00;97465.13;5029262;27;105382;-61
2021/12/13 10:53:01;;;;;;;19.03;14.63;;;;;;;4.79;100.00;97471.84;5033043;28;103966;-62
2021/12/13 10:55:32;;;;;;;17.03;14.77;;;;;;;4.94;100.00;97467.34;5031235;28;102422;-62
2021/12/13 10:58:00;;;;;;;17.20;14.40;;;;;;;5.05;100.00;97469.47;5028765;28;104943;-63
2021/12/13 11:00:35;;;;;;;16.63;14.40;;;;;;;5.02;100.00;97462.75;5029840;28;101937;-62
2021/12/13 11:03:04;;;;;;;17.33;13.73;;;;;;;4.97;100.00;97470.41;5029509;28;105356;-62
2021/12/13 11:05:32;;;;;;;17.53;13.17;;;;;;;5.07;100.00;97463.00;5030412;28;102924;-62
2021/12/13 11:07:59;;;;;;;16.23;12.13;;;;;;;5.08;100.00;97462.00;5029607;28;101926;-62
2021/12/13 11:10:34;;;;;;;16.10;13.47;;;;;;;5.16;100.00;97455.78;5029584;28;105020;-62
2021/12/13 11:13:03;;;;;;;16.80;13.73;;;;;;;5.18;100.00;97459.84;5063100;27;105376;-64
2021/12/13 11:15:34;;;;;;;16.83;14.23;;;;;;;5.20;100.00;97449.94;5033918;28;101918;-64
2021/12/13 11:18:07;;;;;;;17.33;12.60;;;;;;;5.22;100.00;97447.09;5028711;28;106531;-64
2021/12/13 11:20:38;;;;;;;14.47;12.90;;;;;;;5.28;100.00;97449.78;5030953;28;101682;-64
2021/12/13 11:23:07;;;;;;;15.17;12.40;;;;;;;5.39;100.00;97448.44;5028839;28;106058;-64
2021/12/13 11:25:51;;;;;;;16.00;12.33;;;;;;;5.40;100.00;97439.53;5028837;28;104080;-64
2021/12/13 11:28:20;;;;;;;13.73;11.87;;;;;;;5.55;100.00;97433.13;5028076;28;102990;-64
2021/12/13 11:30:50;;;;;;;14.77;12.70;;;;;;;5.56;100.00;97429.50;5029291;28;105096;-64
2021/12/13 11:34:22;;;;;;;13.57;12.17;;;;;;;5.53;100.00;97426.44;5028229;28;105039;-64
2021/12/13 11:37:07;;;;;;;11.50;10.30;;;;;;;5.44;100.00;97417.03;5029119;28;102048;-64
2021/12/13 11:39:49;;;;;;;12.57;10.40;;;;;;;5.44;100.00;97417.84;5031667;28;103802;-64
2021/12/13 11:42:52;;;;;;;12.77;11.40;;;;;;;5.47;100.00;97414.84;5028866;28;101928;-63
2021/12/13 11:45:55;;;;;;;14.33;12.80;;;;;;;5.66;100.00;97400.94;5028663;28;105326;-64
2021/12/13 11:48:42;;;;;;;13.87;12.47;;;;;;;5.83;100.00;97401.47;5028342;28;106512;-64
2021/12/13 11:51:52;;;;;;;24.40;21.87;;;;;;;6.03;100.00;97403.19;5029133;28;101890;-64
2021/12/13 11:54:52;;;;;;;12.77;11.57;;;;;;;6.04;100.00;97398.69;5061569;27;104381;-64